sensor_id;sensor_type;location;lat;lon;timestamp;P1;durP1;ratioP1;P2;durP2;ratioP2
33074;SDS011;19433;51.292;6.868;2023-05-07T00:01:11;3.63;;;2.53;;
33074;SDS011;19433;51.292;6.868;2023-05-07T00:03:36;2.87;;;2.60;;
33074;SDS011;19433;51.292;6.868;2023-05-07T00:06:03;2.93;;;2.73;;
33074;SDS011;19433;51.292;6.868;2023-05-07T00:08:29;3.80;;;2.67;;
33074;SDS011;19433;51.292;6.868;2023-05-07T00:10:54;3.77;;;3.50;;
33074;SDS011;19433;51.292;6.868;2023-05-07T00:13:20;3.93;;;3.63;;
33074;SDS011;19433;51.292;6.868;2023-05-07T00:15:45;3.00;;;2.67;;
33074;SDS011;19433;51.292;6.868;2023-05-07T00:18:10;3.53;;;3.20;;
33074;SDS011;19433;51.292;6.868;2023-05-07T00:20:36;2.30;;;2.20;;
33074;SDS011;19433;51.292;6.868;2023-05-07T00:23:01;2.80;;;2.60;;
33074;SDS011;19433;51.292;6.868;2023-05-07T00:25:26;2.90;;;2.70;;
33074;SDS011;19433;51.292;6.868;2023-05-07T00:27:52;2.50;;;2.37;;
33074;SDS011;19433;51.292;6.868;2023-05-07T00:30:17;3.43;;;3.23;;
33074;SDS011;19433;51.292;6.868;2023-05-07T00:32:42;3.73;;;3.43;;
33074;SDS011;19433;51.292;6.868;2023-05-07T00:35:10;2.60;;;2.40;;
33074;SDS011;19433;51.292;6.868;2023-05-07T00:37:35;2.40;;;2.30;;
33074;SDS011;19433;51.292;6.868;2023-05-07T00:40:01;2.87;;;2.47;;
33074;SDS011;19433;51.292;6.868;2023-05-07T00:42:29;3.07;;;2.80;;
33074;SDS011;19433;51.292;6.868;2023-05-07T00:44:54;4.77;;;2.90;;
33074;SDS011;19433;51.292;6.868;2023-05-07T00:47:20;2.90;;;2.67;;
33074;SDS011;19433;51.292;6.868;2023-05-07T00:49:45;3.97;;;3.17;;
33074;SDS011;19433;51.292;6.868;2023-05-07T00:52:11;2.27;;;2.07;;
33074;SDS011;19433;51.292;6.868;2023-05-07T00:54:40;2.70;;;2.50;;
33074;SDS011;19433;51.292;6.868;2023-05-07T00:57:06;2.97;;;2.70;;
33074;SDS011;19433;51.292;6.868;2023-05-07T00:59:32;3.60;;;3.03;;
33074;SDS011;19433;51.292;6.868;2023-05-07T01:01:58;3.40;;;3.10;;
33074;SDS011;19433;51.292;6.868;2023-05-07T01:04:23;2.93;;;2.63;;
33074;SDS011;19433;51.292;6.868;2023-05-07T01:06:49;3.50;;;3.23;;
33074;SDS011;19433;51.292;6.868;2023-05-07T01:09:15;3.77;;;3.00;;
33074;SDS011;19433;51.292;6.868;2023-05-07T01:11:41;3.13;;;2.83;;
33074;SDS011;19433;51.292;6.868;2023-05-07T01:14:08;3.10;;;2.93;;
33074;SDS011;19433;51.292;6.868;2023-05-07T01:16:34;3.43;;;3.10;;
33074;SDS011;19433;51.292;6.868;2023-05-07T01:19:00;3.03;;;2.60;;
33074;SDS011;19433;51.292;6.868;2023-05-07T01:21:26;2.80;;;2.70;;
33074;SDS011;19433;51.292;6.868;2023-05-07T01:23:52;3.37;;;3.10;;
33074;SDS011;19433;51.292;6.868;2023-05-07T01:26:18;4.00;;;3.20;;
33074;SDS011;19433;51.292;6.868;2023-05-07T01:28:44;3.40;;;3.10;;
33074;SDS011;19433;51.292;6.868;2023-05-07T01:31:10;3.80;;;3.10;;
33074;SDS011;19433;51.292;6.868;2023-05-07T01:33:38;3.30;;;3.00;;
33074;SDS011;19433;51.292;6.868;2023-05-07T01:36:07;3.57;;;3.30;;
33074;SDS011;19433;51.292;6.868;2023-05-07T01:38:34;3.00;;;2.60;;
33074;SDS011;19433;51.292;6.868;2023-05-07T01:41:01;2.97;;;2.60;;
33074;SDS011;19433;51.292;6.868;2023-05-07T01:43:27;3.57;;;2.93;;
33074;SDS011;19433;51.292;6.868;2023-05-07T01:45:54;3.57;;;3.27;;
33074;SDS011;19433;51.292;6.868;2023-05-07T01:48:20;2.87;;;2.77;;
33074;SDS011;19433;51.292;6.868;2023-05-07T01:50:46;2.87;;;2.57;;
33074;SDS011;19433;51.292;6.868;2023-05-07T01:53:12;3.20;;;2.97;;
33074;SDS011;19433;51.292;6.868;2023-05-07T01:55:37;2.43;;;2.23;;
33074;SDS011;19433;51.292;6.868;2023-05-07T01:58:03;2.80;;;2.60;;
33074;SDS011;19433;51.292;6.868;2023-05-07T02:00:28;3.00;;;2.77;;
33074;SDS011;19433;51.292;6.868;2023-05-07T02:02:54;2.10;;;2.00;;
33074;SDS011;19433;51.292;6.868;2023-05-07T02:05:19;2.27;;;2.17;;
33074;SDS011;19433;51.292;6.868;2023-05-07T02:07:45;2.20;;;2.10;;
33074;SDS011;19433;51.292;6.868;2023-05-07T02:10:10;2.47;;;2.37;;
33074;SDS011;19433;51.292;6.868;2023-05-07T02:12:35;2.40;;;2.00;;
33074;SDS011;19433;51.292;6.868;2023-05-07T02:15:01;2.47;;;2.27;;
33074;SDS011;19433;51.292;6.868;2023-05-07T02:17:26;2.20;;;2.00;;
33074;SDS011;19433;51.292;6.868;2023-05-07T02:19:51;2.53;;;2.33;;
33074;SDS011;19433;51.292;6.868;2023-05-07T02:22:17;2.57;;;2.47;;
33074;SDS011;19433;51.292;6.868;2023-05-07T02:24:43;3.17;;;2.70;;
33074;SDS011;19433;51.292;6.868;2023-05-07T02:27:08;2.40;;;2.20;;
33074;SDS011;19433;51.292;6.868;2023-05-07T02:29:33;2.83;;;2.50;;
33074;SDS011;19433;51.292;6.868;2023-05-07T02:31:58;1.90;;;1.80;;
33074;SDS011;19433;51.292;6.868;2023-05-07T02:34:24;2.23;;;2.07;;
33074;SDS011;19433;51.292;6.868;2023-05-07T02:36:49;2.87;;;2.17;;
33074;SDS011;19433;51.292;6.868;2023-05-07T02:39:14;2.53;;;2.27;;
33074;SDS011;19433;51.292;6.868;2023-05-07T02:41:40;2.73;;;2.63;;
33074;SDS011;19433;51.292;6.868;2023-05-07T02:44:05;2.23;;;2.00;;
33074;SDS011;19433;51.292;6.868;2023-05-07T02:46:31;2.50;;;1.90;;
33074;SDS011;19433;51.292;6.868;2023-05-07T02:48:56;5.63;;;2.50;;
33074;SDS011;19433;51.292;6.868;2023-05-07T02:51:22;3.93;;;2.40;;
33074;SDS011;19433;51.292;6.868;2023-05-07T02:53:47;2.97;;;2.77;;
33074;SDS011;19433;51.292;6.868;2023-05-07T02:56:13;2.93;;;1.90;;
33074;SDS011;19433;51.292;6.868;2023-05-07T02:58:38;2.37;;;2.27;;
33074;SDS011;19433;51.292;6.868;2023-05-07T03:01:04;2.70;;;2.50;;
33074;SDS011;19433;51.292;6.868;2023-05-07T03:03:33;2.27;;;2.17;;
33074;SDS011;19433;51.292;6.868;2023-05-07T03:05:58;2.77;;;2.33;;
33074;SDS011;19433;51.292;6.868;2023-05-07T03:08:24;2.60;;;2.47;;
33074;SDS011;19433;51.292;6.868;2023-05-07T03:10:49;2.37;;;2.10;;
33074;SDS011;19433;51.292;6.868;2023-05-07T03:13:15;3.20;;;2.40;;
33074;SDS011;19433;51.292;6.868;2023-05-07T03:15:40;4.03;;;2.50;;
33074;SDS011;19433;51.292;6.868;2023-05-07T03:18:06;2.50;;;2.30;;
33074;SDS011;19433;51.292;6.868;2023-05-07T03:20:31;2.33;;;2.23;;
33074;SDS011;19433;51.292;6.868;2023-05-07T03:22:57;2.60;;;2.50;;
33074;SDS011;19433;51.292;6.868;2023-05-07T03:25:22;2.60;;;2.40;;
33074;SDS011;19433;51.292;6.868;2023-05-07T03:27:47;3.63;;;2.10;;
33074;SDS011;19433;51.292;6.868;2023-05-07T03:30:13;2.47;;;2.30;;
33074;SDS011;19433;51.292;6.868;2023-05-07T03:32:39;2.57;;;2.37;;
33074;SDS011;19433;51.292;6.868;2023-05-07T03:35:05;2.13;;;2.03;;
33074;SDS011;19433;51.292;6.868;2023-05-07T03:37:30;2.93;;;2.67;;
33074;SDS011;19433;51.292;6.868;2023-05-07T03:39:56;2.07;;;1.97;;
33074;SDS011;19433;51.292;6.868;2023-05-07T03:42:21;2.60;;;2.47;;
33074;SDS011;19433;51.292;6.868;2023-05-07T03:44:47;2.40;;;2.20;;
33074;SDS011;19433;51.292;6.868;2023-05-07T03:47:12;1.77;;;1.67;;
33074;SDS011;19433;51.292;6.868;2023-05-07T03:49:38;2.40;;;2.20;;
33074;SDS011;19433;51.292;6.868;2023-05-07T03:52:04;2.90;;;2.17;;
33074;SDS011;19433;51.292;6.868;2023-05-07T03:54:30;2.13;;;2.03;;
33074;SDS011;19433;51.292;6.868;2023-05-07T03:56:55;2.43;;;2.23;;
33074;SDS011;19433;51.292;6.868;2023-05-07T03:59:21;2.20;;;2.10;;
33074;SDS011;19433;51.292;6.868;2023-05-07T04:01:47;3.27;;;2.27;;
33074;SDS011;19433;51.292;6.868;2023-05-07T04:04:13;2.53;;;2.10;;
33074;SDS011;19433;51.292;6.868;2023-05-07T04:06:38;1.90;;;1.80;;
33074;SDS011;19433;51.292;6.868;2023-05-07T04:09:04;2.77;;;2.40;;
33074;SDS011;19433;51.292;6.868;2023-05-07T04:11:29;3.97;;;2.00;;
33074;SDS011;19433;51.292;6.868;2023-05-07T04:13:54;2.60;;;2.40;;
33074;SDS011;19433;51.292;6.868;2023-05-07T04:16:20;2.20;;;2.10;;
33074;SDS011;19433;51.292;6.868;2023-05-07T04:18:45;2.70;;;2.50;;
33074;SDS011;19433;51.292;6.868;2023-05-07T04:21:20;2.50;;;2.30;;
33074;SDS011;19433;51.292;6.868;2023-05-07T04:23:48;3.07;;;2.80;;
33074;SDS011;19433;51.292;6.868;2023-05-07T04:26:14;2.70;;;2.50;;
33074;SDS011;19433;51.292;6.868;2023-05-07T04:28:40;2.37;;;2.17;;
33074;SDS011;19433;51.292;6.868;2023-05-07T04:31:06;3.50;;;2.20;;
33074;SDS011;19433;51.292;6.868;2023-05-07T04:33:32;2.50;;;2.40;;
33074;SDS011;19433;51.292;6.868;2023-05-07T04:35:58;3.00;;;2.40;;
33074;SDS011;19433;51.292;6.868;2023-05-07T04:38:28;2.40;;;2.20;;
33074;SDS011;19433;51.292;6.868;2023-05-07T04:40:55;2.50;;;2.20;;
33074;SDS011;19433;51.292;6.868;2023-05-07T04:43:21;2.30;;;2.10;;
33074;SDS011;19433;51.292;6.868;2023-05-07T04:45:46;2.87;;;2.10;;
33074;SDS011;19433;51.292;6.868;2023-05-07T04:48:11;2.20;;;2.00;;
33074;SDS011;19433;51.292;6.868;2023-05-07T04:50:36;2.20;;;2.10;;
33074;SDS011;19433;51.292;6.868;2023-05-07T04:53:02;2.47;;;2.27;;
33074;SDS011;19433;51.292;6.868;2023-05-07T04:55:28;6.53;;;2.77;;
33074;SDS011;19433;51.292;6.868;2023-05-07T04:57:53;2.90;;;2.70;;
33074;SDS011;19433;51.292;6.868;2023-05-07T05:00:18;2.00;;;1.90;;
33074;SDS011;19433;51.292;6.868;2023-05-07T05:02:44;2.97;;;2.20;;
33074;SDS011;19433;51.292;6.868;2023-05-07T05:05:10;2.90;;;1.93;;
33074;SDS011;19433;51.292;6.868;2023-05-07T05:07:36;5.47;;;2.30;;
33074;SDS011;19433;51.292;6.868;2023-05-07T05:10:02;2.33;;;2.23;;
33074;SDS011;19433;51.292;6.868;2023-05-07T05:12:28;2.13;;;1.90;;
33074;SDS011;19433;51.292;6.868;2023-05-07T05:14:54;2.60;;;2.37;;
33074;SDS011;19433;51.292;6.868;2023-05-07T05:17:19;1.93;;;1.80;;
33074;SDS011;19433;51.292;6.868;2023-05-07T05:19:44;2.27;;;2.07;;
33074;SDS011;19433;51.292;6.868;2023-05-07T05:22:10;2.47;;;2.27;;
33074;SDS011;19433;51.292;6.868;2023-05-07T05:24:35;3.20;;;2.43;;
33074;SDS011;19433;51.292;6.868;2023-05-07T05:27:00;2.87;;;2.33;;
33074;SDS011;19433;51.292;6.868;2023-05-07T05:29:26;3.73;;;2.30;;
33074;SDS011;19433;51.292;6.868;2023-05-07T05:31:52;2.20;;;2.00;;
33074;SDS011;19433;51.292;6.868;2023-05-07T05:34:20;2.40;;;2.20;;
33074;SDS011;19433;51.292;6.868;2023-05-07T05:36:47;2.00;;;1.90;;
33074;SDS011;19433;51.292;6.868;2023-05-07T05:39:12;2.67;;;2.03;;
33074;SDS011;19433;51.292;6.868;2023-05-07T05:41:37;2.30;;;1.70;;
33074;SDS011;19433;51.292;6.868;2023-05-07T05:44:03;1.90;;;1.80;;
33074;SDS011;19433;51.292;6.868;2023-05-07T05:46:28;3.20;;;1.83;;
33074;SDS011;19433;51.292;6.868;2023-05-07T05:48:54;3.10;;;1.60;;
33074;SDS011;19433;51.292;6.868;2023-05-07T05:51:20;2.10;;;1.87;;
33074;SDS011;19433;51.292;6.868;2023-05-07T05:53:46;4.00;;;2.03;;
33074;SDS011;19433;51.292;6.868;2023-05-07T05:56:11;2.13;;;1.97;;
33074;SDS011;19433;51.292;6.868;2023-05-07T05:58:37;2.13;;;2.03;;
33074;SDS011;19433;51.292;6.868;2023-05-07T06:01:02;1.80;;;1.70;;
33074;SDS011;19433;51.292;6.868;2023-05-07T06:03:28;1.97;;;1.87;;
33074;SDS011;19433;51.292;6.868;2023-05-07T06:05:53;2.53;;;1.63;;
33074;SDS011;19433;51.292;6.868;2023-05-07T06:08:18;3.10;;;1.60;;
33074;SDS011;19433;51.292;6.868;2023-05-07T06:10:44;1.80;;;1.67;;
33074;SDS011;19433;51.292;6.868;2023-05-07T06:13:10;2.70;;;1.93;;
33074;SDS011;19433;51.292;6.868;2023-05-07T06:15:35;3.20;;;2.00;;
33074;SDS011;19433;51.292;6.868;2023-05-07T06:18:00;1.90;;;1.57;;
33074;SDS011;19433;51.292;6.868;2023-05-07T06:20:25;4.80;;;2.10;;
33074;SDS011;19433;51.292;6.868;2023-05-07T06:22:51;2.63;;;1.80;;
33074;SDS011;19433;51.292;6.868;2023-05-07T06:25:16;3.10;;;2.07;;
33074;SDS011;19433;51.292;6.868;2023-05-07T06:27:41;2.40;;;2.00;;
33074;SDS011;19433;51.292;6.868;2023-05-07T06:30:07;4.40;;;2.23;;
33074;SDS011;19433;51.292;6.868;2023-05-07T06:32:33;2.70;;;1.80;;
33074;SDS011;19433;51.292;6.868;2023-05-07T06:34:58;2.50;;;1.63;;
33074;SDS011;19433;51.292;6.868;2023-05-07T06:37:23;7.03;;;1.83;;
33074;SDS011;19433;51.292;6.868;2023-05-07T06:39:49;5.43;;;2.00;;
33074;SDS011;19433;51.292;6.868;2023-05-07T06:42:14;1.80;;;1.70;;
33074;SDS011;19433;51.292;6.868;2023-05-07T06:44:39;4.17;;;2.03;;
33074;SDS011;19433;51.292;6.868;2023-05-07T06:47:05;1.90;;;1.57;;
33074;SDS011;19433;51.292;6.868;2023-05-07T06:49:30;2.00;;;1.90;;
33074;SDS011;19433;51.292;6.868;2023-05-07T06:51:56;1.60;;;1.50;;
33074;SDS011;19433;51.292;6.868;2023-05-07T06:54:22;1.67;;;1.57;;
33074;SDS011;19433;51.292;6.868;2023-05-07T06:56:47;2.43;;;2.07;;
33074;SDS011;19433;51.292;6.868;2023-05-07T06:59:12;2.03;;;1.70;;
33074;SDS011;19433;51.292;6.868;2023-05-07T07:01:38;1.93;;;1.77;;
33074;SDS011;19433;51.292;6.868;2023-05-07T07:04:03;2.50;;;1.93;;
33074;SDS011;19433;51.292;6.868;2023-05-07T07:06:28;2.00;;;1.90;;
33074;SDS011;19433;51.292;6.868;2023-05-07T07:08:56;1.97;;;1.77;;
33074;SDS011;19433;51.292;6.868;2023-05-07T07:11:21;2.30;;;1.80;;
33074;SDS011;19433;51.292;6.868;2023-05-07T07:13:47;1.40;;;1.30;;
33074;SDS011;19433;51.292;6.868;2023-05-07T07:16:12;1.87;;;1.40;;
33074;SDS011;19433;51.292;6.868;2023-05-07T07:18:37;2.27;;;1.67;;
33074;SDS011;19433;51.292;6.868;2023-05-07T07:21:03;1.73;;;1.60;;
33074;SDS011;19433;51.292;6.868;2023-05-07T07:23:28;2.27;;;1.50;;
33074;SDS011;19433;51.292;6.868;2023-05-07T07:25:54;2.00;;;1.90;;
33074;SDS011;19433;51.292;6.868;2023-05-07T07:28:20;1.50;;;1.40;;
33074;SDS011;19433;51.292;6.868;2023-05-07T07:30:46;2.40;;;1.27;;
33074;SDS011;19433;51.292;6.868;2023-05-07T07:33:11;1.27;;;1.17;;
33074;SDS011;19433;51.292;6.868;2023-05-07T07:35:37;1.50;;;1.40;;
33074;SDS011;19433;51.292;6.868;2023-05-07T07:38:02;2.10;;;1.27;;
33074;SDS011;19433;51.292;6.868;2023-05-07T07:40:27;1.73;;;1.63;;
33074;SDS011;19433;51.292;6.868;2023-05-07T07:42:53;2.37;;;1.60;;
33074;SDS011;19433;51.292;6.868;2023-05-07T07:45:19;2.33;;;1.53;;
33074;SDS011;19433;51.292;6.868;2023-05-07T07:47:45;1.80;;;1.30;;
33074;SDS011;19433;51.292;6.868;2023-05-07T07:50:10;1.40;;;1.30;;
33074;SDS011;19433;51.292;6.868;2023-05-07T07:52:38;1.90;;;1.20;;
33074;SDS011;19433;51.292;6.868;2023-05-07T07:55:04;1.70;;;1.27;;
33074;SDS011;19433;51.292;6.868;2023-05-07T07:57:30;1.63;;;1.33;;
33074;SDS011;19433;51.292;6.868;2023-05-07T07:59:56;1.07;;;1.07;;
33074;SDS011;19433;51.292;6.868;2023-05-07T08:02:21;1.93;;;1.73;;
33074;SDS011;19433;51.292;6.868;2023-05-07T08:04:46;1.00;;;0.90;;
33074;SDS011;19433;51.292;6.868;2023-05-07T08:07:12;2.77;;;1.40;;
33074;SDS011;19433;51.292;6.868;2023-05-07T08:09:39;1.40;;;1.33;;
33074;SDS011;19433;51.292;6.868;2023-05-07T08:12:06;1.87;;;1.20;;
33074;SDS011;19433;51.292;6.868;2023-05-07T08:14:32;1.50;;;1.40;;
33074;SDS011;19433;51.292;6.868;2023-05-07T08:16:57;1.43;;;1.33;;
33074;SDS011;19433;51.292;6.868;2023-05-07T08:19:23;1.33;;;1.00;;
33074;SDS011;19433;51.292;6.868;2023-05-07T08:21:48;3.50;;;1.30;;
33074;SDS011;19433;51.292;6.868;2023-05-07T08:24:14;1.97;;;1.20;;
33074;SDS011;19433;51.292;6.868;2023-05-07T08:26:40;2.03;;;1.80;;
33074;SDS011;19433;51.292;6.868;2023-05-07T08:29:06;1.07;;;1.00;;
33074;SDS011;19433;51.292;6.868;2023-05-07T08:31:31;1.40;;;1.30;;
33074;SDS011;19433;51.292;6.868;2023-05-07T08:33:57;1.93;;;1.20;;
33074;SDS011;19433;51.292;6.868;2023-05-07T08:36:23;1.83;;;0.93;;
33074;SDS011;19433;51.292;6.868;2023-05-07T08:38:48;3.20;;;1.60;;
33074;SDS011;19433;51.292;6.868;2023-05-07T08:41:14;3.43;;;1.30;;
33074;SDS011;19433;51.292;6.868;2023-05-07T08:43:40;3.23;;;1.77;;
33074;SDS011;19433;51.292;6.868;2023-05-07T08:46:06;1.40;;;1.30;;
33074;SDS011;19433;51.292;6.868;2023-05-07T08:48:34;1.50;;;1.13;;
33074;SDS011;19433;51.292;6.868;2023-05-07T08:51:00;1.83;;;1.37;;
33074;SDS011;19433;51.292;6.868;2023-05-07T08:53:26;1.30;;;0.93;;
33074;SDS011;19433;51.292;6.868;2023-05-07T08:55:51;1.27;;;1.17;;
33074;SDS011;19433;51.292;6.868;2023-05-07T08:58:17;1.20;;;1.10;;
33074;SDS011;19433;51.292;6.868;2023-05-07T09:00:43;2.30;;;1.50;;
33074;SDS011;19433;51.292;6.868;2023-05-07T09:03:08;1.10;;;1.07;;
33074;SDS011;19433;51.292;6.868;2023-05-07T09:05:37;1.13;;;1.03;;
33074;SDS011;19433;51.292;6.868;2023-05-07T09:08:02;1.70;;;1.60;;
33074;SDS011;19433;51.292;6.868;2023-05-07T09:10:28;2.17;;;1.20;;
33074;SDS011;19433;51.292;6.868;2023-05-07T09:12:54;2.30;;;1.10;;
33074;SDS011;19433;51.292;6.868;2023-05-07T09:15:20;1.67;;;1.20;;
33074;SDS011;19433;51.292;6.868;2023-05-07T09:17:45;1.10;;;1.00;;
33074;SDS011;19433;51.292;6.868;2023-05-07T09:20:10;1.27;;;1.00;;
33074;SDS011;19433;51.292;6.868;2023-05-07T09:22:38;1.13;;;1.00;;
33074;SDS011;19433;51.292;6.868;2023-05-07T09:25:05;1.33;;;1.20;;
33074;SDS011;19433;51.292;6.868;2023-05-07T09:27:31;1.33;;;1.23;;
33074;SDS011;19433;51.292;6.868;2023-05-07T09:29:56;0.80;;;0.80;;
33074;SDS011;19433;51.292;6.868;2023-05-07T09:32:22;1.10;;;1.00;;
33074;SDS011;19433;51.292;6.868;2023-05-07T09:34:47;1.23;;;1.13;;
33074;SDS011;19433;51.292;6.868;2023-05-07T09:37:12;1.10;;;1.00;;
33074;SDS011;19433;51.292;6.868;2023-05-07T09:39:45;4.30;;;1.00;;
33074;SDS011;19433;51.292;6.868;2023-05-07T09:42:12;1.63;;;1.10;;
33074;SDS011;19433;51.292;6.868;2023-05-07T09:44:39;1.17;;;1.07;;
33074;SDS011;19433;51.292;6.868;2023-05-07T09:47:06;1.50;;;1.00;;
33074;SDS011;19433;51.292;6.868;2023-05-07T09:49:33;2.50;;;1.23;;
33074;SDS011;19433;51.292;6.868;2023-05-07T09:52:01;2.40;;;1.00;;
33074;SDS011;19433;51.292;6.868;2023-05-07T09:54:27;1.30;;;1.20;;
33074;SDS011;19433;51.292;6.868;2023-05-07T09:56:55;1.60;;;1.30;;
33074;SDS011;19433;51.292;6.868;2023-05-07T09:59:22;1.20;;;1.10;;
33074;SDS011;19433;51.292;6.868;2023-05-07T10:01:48;1.10;;;1.00;;
33074;SDS011;19433;51.292;6.868;2023-05-07T10:04:14;0.93;;;0.93;;
33074;SDS011;19433;51.292;6.868;2023-05-07T10:06:39;0.80;;;0.73;;
33074;SDS011;19433;51.292;6.868;2023-05-07T10:09:06;1.23;;;1.13;;
33074;SDS011;19433;51.292;6.868;2023-05-07T10:11:32;1.57;;;1.17;;
33074;SDS011;19433;51.292;6.868;2023-05-07T10:14:03;1.10;;;1.00;;
33074;SDS011;19433;51.292;6.868;2023-05-07T10:16:31;1.17;;;0.90;;
33074;SDS011;19433;51.292;6.868;2023-05-07T10:18:58;1.90;;;1.10;;
33074;SDS011;19433;51.292;6.868;2023-05-07T10:21:24;0.97;;;0.97;;
33074;SDS011;19433;51.292;6.868;2023-05-07T10:24:04;1.43;;;1.33;;
33074;SDS011;19433;51.292;6.868;2023-05-07T10:26:40;1.33;;;1.00;;
33074;SDS011;19433;51.292;6.868;2023-05-07T10:29:25;1.73;;;1.40;;
33074;SDS011;19433;51.292;6.868;2023-05-07T10:35:09;1.63;;;1.30;;
33074;SDS011;19433;51.292;6.868;2023-05-07T10:37:39;1.13;;;1.10;;
33074;SDS011;19433;51.292;6.868;2023-05-07T10:40:05;0.90;;;0.90;;
33074;SDS011;19433;51.292;6.868;2023-05-07T10:42:32;0.80;;;0.80;;
33074;SDS011;19433;51.292;6.868;2023-05-07T10:44:57;1.70;;;1.17;;
33074;SDS011;19433;51.292;6.868;2023-05-07T10:47:22;1.27;;;1.10;;
33074;SDS011;19433;51.292;6.868;2023-05-07T10:52:17;2.47;;;1.00;;
33074;SDS011;19433;51.292;6.868;2023-05-07T10:54:48;1.27;;;0.90;;
33074;SDS011;19433;51.292;6.868;2023-05-07T10:57:42;3.53;;;0.80;;
33074;SDS011;19433;51.292;6.868;2023-05-07T11:00:40;1.23;;;1.10;;
33074;SDS011;19433;51.292;6.868;2023-05-07T11:05:29;0.90;;;0.80;;
33074;SDS011;19433;51.292;6.868;2023-05-07T11:07:57;1.03;;;1.03;;
33074;SDS011;19433;51.292;6.868;2023-05-07T11:13:18;1.47;;;1.07;;
33074;SDS011;19433;51.292;6.868;2023-05-07T11:15:44;0.60;;;0.60;;
33074;SDS011;19433;51.292;6.868;2023-05-07T11:18:13;1.90;;;1.07;;
33074;SDS011;19433;51.292;6.868;2023-05-07T11:26:00;2.17;;;1.23;;
33074;SDS011;19433;51.292;6.868;2023-05-07T11:28:28;3.30;;;1.30;;
33074;SDS011;19433;51.292;6.868;2023-05-07T11:30:55;1.20;;;1.10;;
33074;SDS011;19433;51.292;6.868;2023-05-07T11:33:22;1.00;;;0.97;;
33074;SDS011;19433;51.292;6.868;2023-05-07T11:35:47;1.30;;;1.20;;
33074;SDS011;19433;51.292;6.868;2023-05-07T11:38:13;1.03;;;0.93;;
33074;SDS011;19433;51.292;6.868;2023-05-07T11:40:57;0.80;;;0.80;;
33074;SDS011;19433;51.292;6.868;2023-05-07T11:43:25;2.10;;;1.00;;
33074;SDS011;19433;51.292;6.868;2023-05-07T11:45:51;1.83;;;0.87;;
33074;SDS011;19433;51.292;6.868;2023-05-07T11:48:17;0.80;;;0.80;;
33074;SDS011;19433;51.292;6.868;2023-05-07T11:50:49;1.30;;;1.20;;
33074;SDS011;19433;51.292;6.868;2023-05-07T11:53:24;1.63;;;0.90;;
33074;SDS011;19433;51.292;6.868;2023-05-07T11:55:57;1.13;;;1.13;;
33074;SDS011;19433;51.292;6.868;2023-05-07T11:58:23;1.37;;;1.00;;
33074;SDS011;19433;51.292;6.868;2023-05-07T12:00:49;1.70;;;1.03;;
33074;SDS011;19433;51.292;6.868;2023-05-07T12:03:15;1.80;;;1.13;;
33074;SDS011;19433;51.292;6.868;2023-05-07T12:05:41;2.63;;;1.30;;
33074;SDS011;19433;51.292;6.868;2023-05-07T12:08:06;1.30;;;1.20;;
33074;SDS011;19433;51.292;6.868;2023-05-07T12:10:33;1.20;;;1.20;;
33074;SDS011;19433;51.292;6.868;2023-05-07T12:12:58;4.17;;;1.30;;
33074;SDS011;19433;51.292;6.868;2023-05-07T12:15:24;2.10;;;1.30;;
33074;SDS011;19433;51.292;6.868;2023-05-07T12:17:49;1.37;;;1.20;;
33074;SDS011;19433;51.292;6.868;2023-05-07T12:20:15;1.30;;;1.20;;
33074;SDS011;19433;51.292;6.868;2023-05-07T12:22:41;1.27;;;1.17;;
33074;SDS011;19433;51.292;6.868;2023-05-07T12:25:08;1.43;;;1.23;;
33074;SDS011;19433;51.292;6.868;2023-05-07T12:27:36;1.80;;;1.27;;
33074;SDS011;19433;51.292;6.868;2023-05-07T12:30:02;1.87;;;1.40;;
33074;SDS011;19433;51.292;6.868;2023-05-07T12:32:27;7.70;;;2.03;;
33074;SDS011;19433;51.292;6.868;2023-05-07T12:34:53;2.43;;;1.73;;
33074;SDS011;19433;51.292;6.868;2023-05-07T12:37:22;2.30;;;1.60;;
33074;SDS011;19433;51.292;6.868;2023-05-07T12:39:49;2.60;;;1.70;;
33074;SDS011;19433;51.292;6.868;2023-05-07T12:42:32;5.10;;;1.90;;
33074;SDS011;19433;51.292;6.868;2023-05-07T12:45:00;2.40;;;1.80;;
33074;SDS011;19433;51.292;6.868;2023-05-07T12:47:27;2.40;;;2.20;;
33074;SDS011;19433;51.292;6.868;2023-05-07T12:49:54;1.90;;;1.80;;
33074;SDS011;19433;51.292;6.868;2023-05-07T12:52:19;2.20;;;2.10;;
33074;SDS011;19433;51.292;6.868;2023-05-07T12:54:45;2.63;;;1.90;;
33074;SDS011;19433;51.292;6.868;2023-05-07T12:57:10;2.70;;;1.73;;
33074;SDS011;19433;51.292;6.868;2023-05-07T12:59:36;3.07;;;2.00;;
33074;SDS011;19433;51.292;6.868;2023-05-07T13:02:04;2.40;;;1.83;;
33074;SDS011;19433;51.292;6.868;2023-05-07T13:04:29;3.10;;;1.90;;
33074;SDS011;19433;51.292;6.868;2023-05-07T13:06:55;2.83;;;2.37;;
33074;SDS011;19433;51.292;6.868;2023-05-07T13:09:20;3.20;;;2.00;;
33074;SDS011;19433;51.292;6.868;2023-05-07T13:11:46;3.27;;;2.13;;
33074;SDS011;19433;51.292;6.868;2023-05-07T13:14:11;2.13;;;2.03;;
33074;SDS011;19433;51.292;6.868;2023-05-07T13:16:37;3.50;;;1.93;;
33074;SDS011;19433;51.292;6.868;2023-05-07T13:19:02;6.17;;;3.20;;
33074;SDS011;19433;51.292;6.868;2023-05-07T13:21:27;6.47;;;3.10;;
33074;SDS011;19433;51.292;6.868;2023-05-07T13:23:52;12.63;;;4.80;;
33074;SDS011;19433;51.292;6.868;2023-05-07T13:26:18;4.53;;;4.13;;
33074;SDS011;19433;51.292;6.868;2023-05-07T13:28:59;9.53;;;5.90;;
33074;SDS011;19433;51.292;6.868;2023-05-07T13:31:25;8.47;;;5.10;;
33074;SDS011;19433;51.292;6.868;2023-05-07T13:33:50;7.43;;;6.67;;
33074;SDS011;19433;51.292;6.868;2023-05-07T13:36:16;13.17;;;6.77;;
33074;SDS011;19433;51.292;6.868;2023-05-07T13:38:41;11.13;;;7.10;;
33074;SDS011;19433;51.292;6.868;2023-05-07T13:41:06;8.20;;;7.50;;
33074;SDS011;19433;51.292;6.868;2023-05-07T13:43:31;9.60;;;8.60;;
33074;SDS011;19433;51.292;6.868;2023-05-07T13:45:58;11.77;;;8.40;;
33074;SDS011;19433;51.292;6.868;2023-05-07T13:48:24;10.90;;;8.50;;
33074;SDS011;19433;51.292;6.868;2023-05-07T13:50:49;15.80;;;10.33;;
33074;SDS011;19433;51.292;6.868;2023-05-07T13:53:14;12.80;;;9.80;;
33074;SDS011;19433;51.292;6.868;2023-05-07T13:55:42;11.90;;;9.90;;
33074;SDS011;19433;51.292;6.868;2023-05-07T13:58:08;12.20;;;11.00;;
33074;SDS011;19433;51.292;6.868;2023-05-07T14:00:33;14.30;;;11.60;;
33074;SDS011;19433;51.292;6.868;2023-05-07T14:02:59;12.70;;;11.60;;
33074;SDS011;19433;51.292;6.868;2023-05-07T14:05:24;13.10;;;11.97;;
33074;SDS011;19433;51.292;6.868;2023-05-07T14:07:50;12.93;;;11.10;;
33074;SDS011;19433;51.292;6.868;2023-05-07T14:10:17;16.97;;;12.43;;
33074;SDS011;19433;51.292;6.868;2023-05-07T14:12:43;13.20;;;11.80;;
33074;SDS011;19433;51.292;6.868;2023-05-07T14:15:09;14.20;;;12.67;;
33074;SDS011;19433;51.292;6.868;2023-05-07T14:17:35;22.40;;;12.97;;
33074;SDS011;19433;51.292;6.868;2023-05-07T14:20:00;13.70;;;11.67;;
33074;SDS011;19433;51.292;6.868;2023-05-07T14:22:26;14.90;;;12.80;;
33074;SDS011;19433;51.292;6.868;2023-05-07T14:24:51;16.40;;;12.17;;
33074;SDS011;19433;51.292;6.868;2023-05-07T14:27:16;13.73;;;12.30;;
33074;SDS011;19433;51.292;6.868;2023-05-07T14:29:42;15.30;;;11.43;;
33074;SDS011;19433;51.292;6.868;2023-05-07T14:32:08;13.67;;;12.27;;
33074;SDS011;19433;51.292;6.868;2023-05-07T14:34:33;14.70;;;13.50;;
33074;SDS011;19433;51.292;6.868;2023-05-07T14:36:59;14.43;;;13.13;;
33074;SDS011;19433;51.292;6.868;2023-05-07T14:39:25;13.27;;;11.90;;
33074;SDS011;19433;51.292;6.868;2023-05-07T14:41:51;14.30;;;12.90;;
33074;SDS011;19433;51.292;6.868;2023-05-07T14:44:16;13.00;;;11.90;;
33074;SDS011;19433;51.292;6.868;2023-05-07T14:46:42;12.40;;;11.23;;
33074;SDS011;19433;51.292;6.868;2023-05-07T14:49:07;13.70;;;12.50;;
33074;SDS011;19433;51.292;6.868;2023-05-07T14:51:41;12.63;;;11.33;;
33074;SDS011;19433;51.292;6.868;2023-05-07T14:54:06;15.37;;;11.60;;
33074;SDS011;19433;51.292;6.868;2023-05-07T14:56:32;14.60;;;13.30;;